Time;durP1;ratioP1;P1;durP2;ratioP2;P2;SDS_P1;SDS_P2;PMS_P1;PMS_P2;Temp;Humidity;BMP_temperature;BMP_pressure;BME280_temperature;BME280_humidity;BME280_pressure;Samples;Min_cycle;Max_cycle;Signal;HPM_P1;HPM_P2
2022/11/13 00:02:08;;;;;;;2.10;2.00;;;20.60;43.70;;;;;;5052439;28;21651;-64
2022/11/13 00:04:34;;;;;;;2.17;1.93;;;20.70;43.80;;;;;;5056410;28;20220;-64
2022/11/13 00:06:59;;;;;;;2.87;2.60;;;20.60;43.80;;;;;;5055266;28;20229;-64
2022/11/13 00:09:25;;;;;;;2.13;2.03;;;20.70;43.80;;;;;;5054317;28;20232;-65
2022/11/13 00:11:50;;;;;;;2.47;2.27;;;20.60;43.60;;;;;;5055485;28;20248;-64
2022/11/13 00:14:16;;;;;;;2.13;2.03;;;20.70;43.80;;;;;;5057409;28;20213;-64
2022/11/13 00:16:41;;;;;;;2.00;1.90;;;20.60;43.70;;;;;;5055253;28;20320;-64
2022/11/13 00:19:07;;;;;;;2.00;1.90;;;20.60;43.70;;;;;;5056925;28;20328;-64
2022/11/13 00:21:32;;;;;;;2.20;2.10;;;20.60;43.70;;;;;;5055720;28;20221;-64
2022/11/13 00:23:58;;;;;;;2.20;2.10;;;20.60;43.70;;;;;;5056474;28;20583;-64
2022/11/13 00:26:26;;;;;;;2.40;2.30;;;20.60;43.70;;;;;;5050696;28;20217;-63
2022/11/13 00:29:00;;;;;;;2.30;2.20;;;20.60;43.70;;;;;;5053960;28;20303;-64
2022/11/13 00:31:26;;;;;;;2.30;2.20;;;20.60;43.70;;;;;;5051526;28;20458;-64
2022/11/13 00:33:52;;;;;;;2.30;2.20;;;20.60;43.70;;;;;;5055637;28;20458;-64
2022/11/13 00:36:20;;;;;;;2.30;2.20;;;20.60;43.70;;;;;;5058623;28;20446;-64
2022/11/13 00:38:46;;;;;;;1.80;1.70;;;20.60;43.70;;;;;;5049497;28;20221;-64
2022/11/13 00:41:12;;;;;;;2.27;2.17;;;20.60;43.70;;;;;;5056205;28;20453;-63
2022/11/13 00:43:38;;;;;;;2.97;2.77;;;20.60;43.70;;;;;;5057194;28;20671;-64
2022/11/13 00:46:04;;;;;;;2.40;2.30;;;20.70;43.80;;;;;;5057344;28;21173;-64
2022/11/13 00:48:29;;;;;;;2.40;2.30;;;20.60;43.70;;;;;;5054375;28;20316;-64
2022/11/13 00:50:55;;;;;;;2.17;2.07;;;20.60;43.70;;;;;;5053486;28;20685;-64
2022/11/13 00:53:21;;;;;;;1.97;1.87;;;20.60;43.70;;;;;;5047983;28;20225;-63
2022/11/13 00:55:47;;;;;;;2.27;2.17;;;20.60;43.70;;;;;;5040596;28;20477;-63
2022/11/13 00:58:13;;;;;;;2.10;2.00;;;20.60;43.70;;;;;;5043317;28;20225;-63
2022/11/13 01:00:41;;;;;;;2.20;2.10;;;20.60;43.70;;;;;;5041684;28;20263;-64
2022/11/13 01:03:06;;;;;;;2.27;2.17;;;20.60;44.00;;;;;;5037503;28;20447;-64
2022/11/13 01:05:36;;;;;;;1.90;1.80;;;20.60;43.80;;;;;;5036671;28;20470;-63
2022/11/13 01:08:02;;;;;;;2.00;1.90;;;20.60;43.70;;;;;;5050208;28;20229;-64
2022/11/13 01:10:28;;;;;;;3.03;2.73;;;20.60;43.70;;;;;;5047833;28;20481;-63
2022/11/13 01:12:53;;;;;;;2.80;2.60;;;20.60;43.70;;;;;;5046936;28;20458;-64
2022/11/13 01:15:19;;;;;;;3.00;2.80;;;20.60;43.70;;;;;;5043625;28;20236;-64
2022/11/13 01:17:44;;;;;;;2.30;2.20;;;20.60;43.70;;;;;;5043558;28;20244;-63
2022/11/13 01:20:10;;;;;;;2.67;2.53;;;20.60;43.70;;;;;;5031197;28;20219;-64
2022/11/13 01:22:36;;;;;;;2.17;2.07;;;20.60;43.70;;;;;;5054979;28;20228;-64
2022/11/13 01:25:01;;;;;;;2.20;2.10;;;20.60;43.70;;;;;;5054907;28;20235;-64
2022/11/13 01:27:27;;;;;;;2.40;2.30;;;20.60;43.60;;;;;;5054848;28;20233;-64
2022/11/13 01:29:52;;;;;;;2.20;2.10;;;20.60;43.80;;;;;;5051913;28;20229;-64
2022/11/13 01:32:18;;;;;;;2.43;2.23;;;20.60;43.60;;;;;;5056372;28;20673;-64
2022/11/13 01:34:43;;;;;;;2.10;2.00;;;20.60;43.70;;;;;;5054086;28;20721;-64
2022/11/13 01:37:09;;;;;;;2.77;2.57;;;20.60;43.70;;;;;;5057803;28;20225;-64
2022/11/13 01:39:34;;;;;;;2.20;2.10;;;20.60;43.60;;;;;;5056826;28;20294;-64
2022/11/13 01:42:00;;;;;;;2.67;2.47;;;20.60;43.70;;;;;;5052808;28;20229;-64
2022/11/13 01:44:46;;;;;;;2.70;2.50;;;20.60;43.70;;;;;;5052953;28;20217;-64
2022/11/13 01:47:12;;;;;;;2.00;1.90;;;20.60;43.70;;;;;;5055704;28;20708;-63
2022/11/13 01:49:40;;;;;;;2.07;1.97;;;20.60;43.70;;;;;;5054088;28;20454;-64
2022/11/13 01:52:12;;;;;;;2.70;2.50;;;20.60;43.60;;;;;;5056933;28;20221;-64
2022/11/13 01:54:42;;;;;;;2.57;2.37;;;20.60;43.60;;;;;;5054631;28;20532;-64
2022/11/13 01:57:08;;;;;;;2.50;2.40;;;20.60;43.70;;;;;;5053387;28;21122;-64
2022/11/13 01:59:40;;;;;;;2.20;2.10;;;20.60;43.70;;;;;;5057109;28;20473;-64
2022/11/13 02:02:06;;;;;;;2.40;2.30;;;20.60;43.60;;;;;;5056076;28;20446;-64
2022/11/13 02:04:32;;;;;;;2.23;2.13;;;20.60;43.80;;;;;;5056643;28;20458;-64
2022/11/13 02:07:08;;;;;;;2.10;2.00;;;20.60;43.70;;;;;;5051249;28;20483;-64
2022/11/13 02:09:40;;;;;;;3.00;2.80;;;20.60;43.60;;;;;;5050103;28;20951;-64
2022/11/13 02:12:10;;;;;;;2.20;2.10;;;20.60;43.60;;;;;;5052725;28;20453;-64
2022/11/13 02:14:39;;;;;;;2.30;2.20;;;20.60;43.60;;;;;;5060439;28;20540;-64
2022/11/13 02:17:08;;;;;;;2.20;2.10;;;20.60;43.70;;;;;;5057710;28;20474;-64
2022/11/13 02:19:41;;;;;;;2.23;2.13;;;20.60;43.60;;;;;;5052393;28;20454;-64
2022/11/13 02:22:29;;;;;;;2.47;2.37;;;20.60;43.60;;;;;;5055608;28;20454;-64
2022/11/13 02:24:58;;;;;;;2.03;1.93;;;20.60;43.70;;;;;;5054562;28;20469;-64
2022/11/13 02:27:44;;;;;;;2.90;2.70;;;20.60;44.40;;;;;;5053810;28;20469;-63
2022/11/13 02:30:19;;;;;;;2.30;2.20;;;20.60;43.70;;;;;;5053175;28;20450;-63
2022/11/13 02:32:48;;;;;;;2.27;2.17;;;20.60;43.60;;;;;;5053110;28;20558;-64
2022/11/13 02:35:27;;;;;;;2.33;2.20;;;20.60;43.60;;;;;;5053890;28;21487;-65
2022/11/13 02:37:56;;;;;;;2.57;2.47;;;20.60;43.70;;;;;;5050226;28;20902;-65
2022/11/13 02:40:23;;;;;;;2.63;2.43;;;20.60;43.60;;;;;;5054805;28;21169;-64
2022/11/13 02:42:48;;;;;;;2.17;2.07;;;20.60;43.70;;;;;;5051508;28;20479;-64
2022/11/13 02:45:14;;;;;;;2.40;2.30;;;20.60;43.60;;;;;;5054316;28;21028;-65
2022/11/13 02:47:39;;;;;;;1.93;1.83;;;20.60;43.60;;;;;;5054196;28;20290;-64
2022/11/13 02:50:06;;;;;;;2.23;2.13;;;20.60;43.60;;;;;;5052652;28;20229;-63
2022/11/13 02:52:32;;;;;;;2.23;2.13;;;20.60;43.60;;;;;;5052558;28;20249;-63
2022/11/13 02:54:57;;;;;;;2.37;2.27;;;20.60;43.60;;;;;;5052121;28;20462;-64
2022/11/13 02:57:23;;;;;;;2.30;2.20;;;20.60;43.60;;;;;;5049055;28;20224;-63
2022/11/13 02:59:48;;;;;;;2.00;1.90;;;20.60;43.60;;;;;;5051635;28;20217;-64
2022/11/13 03:02:14;;;;;;;2.70;2.60;;;20.60;43.60;;;;;;5048051;28;20300;-64
2022/11/13 03:04:40;;;;;;;2.30;2.20;;;20.60;43.60;;;;;;5052921;28;20228;-64
2022/11/13 03:07:05;;;;;;;1.90;1.80;;;20.60;43.60;;;;;;5050970;28;20259;-64
2022/11/13 03:09:31;;;;;;;2.33;2.23;;;20.50;43.50;;;;;;5052950;28;20229;-63
2022/11/13 03:11:56;;;;;;;2.27;2.17;;;20.60;43.60;;;;;;5053626;28;20220;-63
2022/11/13 03:14:22;;;;;;;2.33;2.23;;;20.60;43.60;;;;;;5053092;28;20228;-64
2022/11/13 03:16:47;;;;;;;2.20;2.10;;;20.60;43.60;;;;;;5052611;28;20286;-64
2022/11/13 03:19:13;;;;;;;2.57;2.47;;;20.60;43.60;;;;;;5053691;28;20240;-64
2022/11/13 03:21:39;;;;;;;2.50;2.30;;;20.60;43.60;;;;;;5053779;28;20225;-64
2022/11/13 03:24:04;;;;;;;2.10;2.00;;;20.60;43.60;;;;;;5051561;28;20680;-64
2022/11/13 03:26:30;;;;;;;2.00;1.90;;;20.60;43.70;;;;;;5053464;28;20221;-63
2022/11/13 03:28:56;;;;;;;2.60;2.40;;;20.60;43.60;;;;;;5051656;28;20230;-63
2022/11/13 03:31:21;;;;;;;2.30;2.20;;;20.60;43.60;;;;;;5054880;28;20224;-64
2022/11/13 03:33:47;;;;;;;2.30;2.20;;;20.60;43.50;;;;;;5056279;28;20311;-64
2022/11/13 03:36:13;;;;;;;2.30;2.20;;;20.60;43.60;;;;;;5050708;28;20395;-64
2022/11/13 03:38:39;;;;;;;2.47;2.30;;;20.60;43.50;;;;;;5053375;28;20225;-64
2022/11/13 03:41:04;;;;;;;2.30;2.20;;;20.60;43.60;;;;;;5050316;28;20461;-64
2022/11/13 03:43:30;;;;;;;2.37;2.27;;;20.60;43.50;;;;;;5054179;28;20225;-63
2022/11/13 03:45:56;;;;;;;2.50;2.30;;;20.60;43.60;;;;;;5054271;28;20224;-64
2022/11/13 03:48:22;;;;;;;2.00;1.90;;;20.60;43.50;;;;;;5053819;28;20743;-64
2022/11/13 03:50:50;;;;;;;2.30;2.20;;;20.60;43.60;;;;;;5048929;28;20312;-64
2022/11/13 03:53:16;;;;;;;2.50;2.30;;;20.60;43.50;;;;;;5051300;28;20274;-64
2022/11/13 03:55:42;;;;;;;2.23;2.10;;;20.60;43.60;;;;;;5051430;28;20443;-64
2022/11/13 03:58:08;;;;;;;2.50;2.40;;;20.60;43.60;;;;;;5034912;28;20222;-64
2022/11/13 04:00:34;;;;;;;2.50;2.30;;;20.50;43.50;;;;;;5051399;28;20605;-64
2022/11/13 04:03:00;;;;;;;2.00;1.90;;;20.50;43.60;;;;;;5046479;28;20218;-64
2022/11/13 04:05:26;;;;;;;2.30;2.20;;;20.60;43.50;;;;;;5051439;28;20470;-64
2022/11/13 04:07:52;;;;;;;2.40;2.30;;;20.60;43.50;;;;;;5052589;28;20627;-64
2022/11/13 04:10:17;;;;;;;2.40;2.20;;;20.50;43.50;;;;;;5050981;28;20252;-64
2022/11/13 04:12:43;;;;;;;2.37;2.27;;;20.50;43.50;;;;;;5056650;28;20513;-64
2022/11/13 04:15:09;;;;;;;2.03;1.93;;;20.50;43.50;;;;;;5057324;28;20213;-64
2022/11/13 04:17:35;;;;;;;2.33;2.23;;;20.50;43.50;;;;;;5051372;28;20336;-64
2022/11/13 04:20:00;;;;;;;2.30;2.20;;;20.50;43.50;;;;;;5055231;28;20437;-63
2022/11/13 04:22:27;;;;;;;1.90;1.80;;;20.50;43.50;;;;;;5057441;28;20372;-63
2022/11/13 04:24:52;;;;;;;2.47;2.37;;;20.50;43.50;;;;;;5054784;28;20457;-64
2022/11/13 04:27:18;;;;;;;2.13;2.03;;;20.50;43.50;;;;;;5056849;28;20654;-64
2022/11/13 04:29:43;;;;;;;2.23;2.13;;;20.50;43.50;;;;;;5056597;28;20298;-64
2022/11/13 04:32:09;;;;;;;2.53;2.43;;;20.50;43.50;;;;;;5056401;28;20213;-63
2022/11/13 04:34:34;;;;;;;2.30;2.20;;;20.50;43.40;;;;;;5058659;28;20247;-64
2022/11/13 04:37:00;;;;;;;2.00;1.90;;;20.50;43.50;;;;;;5056477;28;20422;-64
2022/11/13 04:39:25;;;;;;;2.17;2.07;;;20.50;43.40;;;;;;5056313;28;20214;-64
2022/11/13 04:44:35;;;;;;;2.10;2.00;;;20.50;43.50;;;;;;5057984;28;20248;-64
2022/11/13 04:47:01;;;;;;;2.20;2.10;;;20.50;43.40;;;;;;5057730;28;20868;-64
2022/11/13 04:49:26;;;;;;;2.10;2.00;;;20.50;43.50;;;;;;5054389;28;20221;-64
2022/11/13 04:51:52;;;;;;;2.00;1.90;;;20.50;43.40;;;;;;5059105;28;20226;-63
2022/11/13 04:54:17;;;;;;;2.20;2.10;;;20.50;43.40;;;;;;5053519;28;20248;-64
2022/11/13 04:56:43;;;;;;;2.37;2.27;;;20.50;43.30;;;;;;5054807;28;20793;-63
2022/11/13 04:59:09;;;;;;;2.57;2.37;;;20.50;43.40;;;;;;5058944;28;20562;-65
2022/11/13 05:01:35;;;;;;;2.03;1.93;;;20.50;43.40;;;;;;5053011;28;20607;-65
2022/11/13 05:04:01;;;;;;;2.40;2.30;;;20.50;43.30;;;;;;5053562;28;20485;-64
2022/11/13 05:06:27;;;;;;;2.03;1.93;;;20.60;43.40;;;;;;5052851;28;20469;-64
2022/11/13 05:08:52;;;;;;;2.50;2.40;;;20.60;43.40;;;;;;5052131;28;20470;-65
2022/11/13 05:11:18;;;;;;;2.60;2.40;;;20.60;43.40;;;;;;5058291;28;20221;-64
2022/11/13 05:13:44;;;;;;;2.53;2.37;;;20.60;43.30;;;;;;5055344;28;20221;-65
2022/11/13 05:16:11;;;;;;;2.30;2.20;;;20.60;43.30;;;;;;5061102;28;20217;-64
2022/11/13 05:18:37;;;;;;;2.47;2.27;;;20.60;43.30;;;;;;5057701;28;20423;-64
2022/11/13 05:21:05;;;;;;;2.33;2.13;;;20.60;43.30;;;;;;5051757;28;20467;-64
2022/11/13 05:23:31;;;;;;;2.00;1.90;;;20.60;43.20;;;;;;5055656;28;20229;-64
2022/11/13 05:26:05;;;;;;;2.30;2.20;;;20.60;43.20;;;;;;5055647;28;20542;-63
2022/11/13 05:28:30;;;;;;;2.40;2.30;;;20.60;43.20;;;;;;5057385;28;20531;-64
2022/11/13 05:31:14;;;;;;;2.30;2.20;;;20.60;43.20;;;;;;5055981;28;20458;-64
2022/11/13 05:33:40;;;;;;;2.30;2.20;;;20.60;43.20;;;;;;5053550;28;21287;-64
2022/11/13 05:36:08;;;;;;;2.10;2.00;;;20.60;43.20;;;;;;5053181;28;20462;-64
2022/11/13 05:38:35;;;;;;;2.47;2.37;;;20.60;43.20;;;;;;5058103;28;20458;-64
2022/11/13 05:41:05;;;;;;;2.40;2.20;;;20.60;43.30;;;;;;5055870;28;20953;-64
2022/11/13 05:43:31;;;;;;;2.30;2.20;;;20.60;43.20;;;;;;5054524;28;20458;-64
2022/11/13 05:46:05;;;;;;;2.20;2.10;;;20.60;43.20;;;;;;5057294;28;21050;-64
2022/11/13 05:48:32;;;;;;;2.50;2.40;;;20.60;43.10;;;;;;5055906;28;20474;-64
2022/11/13 05:51:23;;;;;;;2.00;1.90;;;20.60;43.20;;;;;;5056813;28;20504;-64
2022/11/13 05:53:48;;;;;;;2.20;2.10;;;20.60;43.10;;;;;;5046589;28;20461;-65
2022/11/13 05:56:20;;;;;;;2.43;2.33;;;20.70;43.10;;;;;;5055317;28;20461;-65
2022/11/13 05:58:46;;;;;;;2.10;2.00;;;20.60;43.10;;;;;;5053115;28;20688;-64
2022/11/13 06:01:17;;;;;;;2.00;1.90;;;20.60;43.10;;;;;;5053869;28;20539;-64
2022/11/13 06:03:43;;;;;;;1.90;1.80;;;20.60;43.00;;;;;;5057221;28;20529;-64
2022/11/13 06:06:11;;;;;;;2.77;2.60;;;20.60;43.00;;;;;;5053186;28;20446;-64
2022/11/13 06:08:37;;;;;;;2.33;2.23;;;20.70;43.10;;;;;;5056769;28;20463;-64
2022/11/13 06:11:09;;;;;;;2.17;2.07;;;20.70;43.10;;;;;;5056141;28;20825;-64
2022/11/13 06:13:35;;;;;;;2.00;1.90;;;20.70;43.10;;;;;;5052493;28;20259;-64
2022/11/13 06:16:10;;;;;;;2.23;2.13;;;20.70;43.00;;;;;;5052544;28;20454;-64
2022/11/13 06:18:37;;;;;;;2.77;2.20;;;20.70;43.10;;;;;;5052745;28;20819;-64
2022/11/13 06:21:08;;;;;;;1.90;1.80;;;20.70;43.00;;;;;;5054361;28;20824;-62
2022/11/13 06:23:35;;;;;;;2.10;2.00;;;20.70;43.00;;;;;;5051359;28;22848;-63
2022/11/13 06:26:09;;;;;;;2.07;1.97;;;20.70;43.10;;;;;;5053957;28;20470;-63
2022/11/13 06:28:35;;;;;;;2.07;1.97;;;20.70;43.00;;;;;;5050699;28;20458;-64
2022/11/13 06:31:22;;;;;;;2.20;2.10;;;20.70;43.00;;;;;;5059738;28;20651;-64
2022/11/13 06:33:48;;;;;;;2.30;2.20;;;20.70;43.00;;;;;;5040141;28;20458;-64
2022/11/13 06:36:19;;;;;;;2.23;2.03;;;20.70;43.00;;;;;;5058614;28;20956;-64
2022/11/13 06:38:46;;;;;;;2.30;2.20;;;20.70;43.00;;;;;;5053706;28;20232;-65
2022/11/13 06:41:14;;;;;;;2.30;2.20;;;20.70;43.00;;;;;;5054964;28;20835;-65
2022/11/13 06:43:40;;;;;;;2.33;2.23;;;20.70;42.90;;;;;;5049318;28;20915;-65
2022/11/13 06:46:11;;;;;;;2.17;2.07;;;20.70;42.90;;;;;;5060405;28;20929;-65
2022/11/13 06:48:37;;;;;;;2.00;1.90;;;20.70;42.90;;;;;;5054617;28;20237;-62
2022/11/13 06:51:05;;;;;;;2.10;2.00;;;20.70;42.90;;;;;;5054173;28;20596;-63
2022/11/13 06:53:31;;;;;;;2.90;2.03;;;20.70;42.80;;;;;;5055254;28;20236;-63
2022/11/13 06:55:57;;;;;;;2.10;2.00;;;20.70;42.80;;;;;;5055718;28;20474;-64
2022/11/13 06:58:23;;;;;;;2.17;2.00;;;20.70;42.80;;;;;;5051767;28;20988;-63
2022/11/13 07:00:49;;;;;;;2.40;2.30;;;20.70;42.80;;;;;;5037818;28;20454;-65
2022/11/13 07:03:17;;;;;;;2.63;2.43;;;20.70;42.80;;;;;;5056030;28;20234;-64
2022/11/13 07:05:42;;;;;;;2.53;2.43;;;20.70;42.80;;;;;;5057258;28;20457;-64
2022/11/13 07:08:08;;;;;;;2.30;2.20;;;20.70;42.80;;;;;;5061374;28;20462;-64
2022/11/13 07:10:33;;;;;;;5.00;2.20;;;20.70;42.80;;;;;;5061185;28;20527;-64
2022/11/13 07:12:59;;;;;;;2.20;2.10;;;20.70;42.80;;;;;;5058653;28;20245;-64
2022/11/13 07:15:26;;;;;;;2.50;2.40;;;20.70;42.80;;;;;;5061535;28;20694;-64
2022/11/13 07:17:51;;;;;;;2.80;2.70;;;20.70;42.80;;;;;;5059507;28;20229;-63
2022/11/13 07:20:17;;;;;;;2.37;2.17;;;20.70;42.80;;;;;;5059987;28;20442;-66
2022/11/13 07:22:42;;;;;;;3.17;2.20;;;20.70;42.90;;;;;;5059147;28;20213;-65
2022/11/13 07:25:08;;;;;;;2.10;2.00;;;20.70;42.90;;;;;;5054787;28;20229;-65
2022/11/13 07:27:34;;;;;;;2.73;2.53;;;20.60;42.70;;;;;;5057529;28;20320;-64
2022/11/13 07:29:59;;;;;;;3.00;2.80;;;20.70;42.80;;;;;;5057646;28;20229;-64
2022/11/13 07:32:25;;;;;;;2.17;1.97;;;20.70;42.80;;;;;;5059254;28;20228;-64
2022/11/13 07:34:50;;;;;;;2.70;2.60;;;20.60;42.80;;;;;;5057719;28;20229;-62
2022/11/13 07:37:16;;;;;;;2.30;2.20;;;20.70;42.90;;;;;;5052042;28;20221;-61
2022/11/13 07:39:41;;;;;;;5.17;2.33;;;20.70;42.80;;;;;;5035786;28;20217;-61
2022/11/13 07:42:07;;;;;;;2.40;2.30;;;20.70;43.60;;;;;;5055337;28;20732;-63
2022/11/13 07:44:32;;;;;;;2.33;2.13;;;20.70;42.80;;;;;;5058461;28;20926;-63
2022/11/13 07:46:58;;;;;;;3.03;2.73;;;20.70;42.80;;;;;;5051060;28;20613;-63
2022/11/13 07:49:23;;;;;;;4.03;2.40;;;20.70;42.80;;;;;;5055192;28;20217;-64
2022/11/13 07:51:49;;;;;;;2.47;2.10;;;20.70;42.80;;;;;;5064420;28;20221;-63
2022/11/13 07:54:14;;;;;;;2.47;2.27;;;20.70;42.80;;;;;;5064152;28;20275;-64
2022/11/13 07:56:40;;;;;;;3.77;3.43;;;20.70;42.80;;;;;;5065107;28;20229;-64
2022/11/13 07:59:05;;;;;;;2.30;2.20;;;20.70;42.80;;;;;;5062824;28;20743;-63
2022/11/13 08:01:31;;;;;;;2.53;2.40;;;20.70;42.80;;;;;;5065764;28;20217;-64
2022/11/13 08:03:57;;;;;;;2.57;2.37;;;20.70;42.80;;;;;;5064799;28;20290;-64
2022/11/13 08:06:22;;;;;;;2.80;2.60;;;20.70;42.80;;;;;;5064961;28;21265;-64
2022/11/13 08:08:48;;;;;;;2.23;2.13;;;20.70;42.80;;;;;;5064939;28;20466;-63
2022/11/13 08:11:14;;;;;;;2.33;2.13;;;20.70;42.80;;;;;;5065524;28;20749;-64
2022/11/13 08:13:40;;;;;;;2.60;2.40;;;20.70;42.80;;;;;;5065191;28;20708;-63
2022/11/13 08:16:06;;;;;;;2.57;2.33;;;20.70;42.80;;;;;;5064921;28;20303;-62
2022/11/13 08:18:31;;;;;;;2.73;2.53;;;20.70;42.80;;;;;;5064232;28;20586;-63
2022/11/13 08:21:01;;;;;;;2.80;2.60;;;20.60;43.50;;;;;;5059868;28;20257;-63
2022/11/13 08:23:27;;;;;;;2.77;2.57;;;20.60;42.70;;;;;;5051033;28;20268;-62
2022/11/13 08:25:52;;;;;;;2.30;2.20;;;20.60;42.70;;;;;;5056556;28;20462;-63
2022/11/13 08:28:18;;;;;;;3.53;2.30;;;20.70;42.90;;;;;;5062573;28;20240;-63
2022/11/13 08:30:44;;;;;;;2.40;2.30;;;20.60;42.70;;;;;;5063505;28;20225;-63
2022/11/13 08:33:09;;;;;;;2.53;2.43;;;20.70;42.90;;;;;;5063668;28;20255;-63
2022/11/13 08:35:35;;;;;;;2.50;2.30;;;20.60;42.80;;;;;;5064281;28;20447;-63
2022/11/13 08:38:05;;;;;;;2.10;2.00;;;20.60;42.70;;;;;;5065822;28;20304;-63
2022/11/13 08:40:31;;;;;;;2.60;2.40;;;20.70;42.80;;;;;;5063927;28;20228;-63
2022/11/13 08:43:01;;;;;;;2.60;2.40;;;20.60;42.80;;;;;;5061778;28;20458;-63
2022/11/13 08:45:28;;;;;;;2.17;2.03;;;20.70;42.80;;;;;;5062239;28;20664;-63
2022/11/13 08:48:01;;;;;;;2.53;2.30;;;20.70;42.80;;;;;;5060956;28;20504;-63
2022/11/13 08:50:27;;;;;;;2.67;2.47;;;20.60;42.70;;;;;;5063242;28;20925;-63
2022/11/13 08:52:54;;;;;;;2.10;2.00;;;20.60;42.70;;;;;;5063720;28;20485;-63
2022/11/13 08:55:20;;;;;;;2.13;2.03;;;20.70;42.80;;;;;;5064065;28;20477;-63
2022/11/13 08:57:45;;;;;;;2.30;2.20;;;20.70;42.80;;;;;;5065109;28;20895;-63
2022/11/13 09:00:11;;;;;;;2.10;2.00;;;20.60;42.70;;;;;;5064991;28;20246;-63
2022/11/13 09:02:37;;;;;;;3.13;2.93;;;20.60;42.70;;;;;;5065155;28;20408;-63
2022/11/13 09:05:03;;;;;;;2.30;2.20;;;20.60;42.70;;;;;;5061810;28;20318;-63
2022/11/13 09:07:29;;;;;;;3.47;2.93;;;20.60;42.70;;;;;;5060550;28;20269;-63
2022/11/13 09:09:54;;;;;;;2.57;2.37;;;20.60;42.70;;;;;;5063053;28;20565;-62
2022/11/13 09:12:20;;;;;;;2.30;2.20;;;20.60;42.70;;;;;;5064015;28;20217;-63
2022/11/13 09:14:45;;;;;;;2.40;2.30;;;20.60;42.70;;;;;;5063315;28;20328;-63
2022/11/13 09:17:11;;;;;;;2.20;2.10;;;20.70;42.80;;;;;;5063659;28;20229;-63
2022/11/13 09:19:37;;;;;;;2.50;2.30;;;20.70;42.80;;;;;;5065547;28;20390;-62
2022/11/13 09:22:02;;;;;;;5.20;2.20;;;20.60;42.70;;;;;;5064277;28;20221;-63
2022/11/13 09:24:28;;;;;;;2.20;2.10;;;20.70;42.80;;;;;;5062151;28;20283;-63
2022/11/13 09:26:53;;;;;;;2.37;2.27;;;20.70;42.80;;;;;;5045297;28;20221;-63
2022/11/13 09:29:19;;;;;;;2.47;2.27;;;20.70;42.80;;;;;;5063947;28;20646;-63
2022/11/13 09:31:45;;;;;;;3.33;2.10;;;20.70;42.80;;;;;;5061923;28;20222;-64
2022/11/13 09:34:11;;;;;;;2.50;2.23;;;20.70;42.80;;;;;;5064595;28;20449;-63
2022/11/13 09:36:36;;;;;;;2.10;2.00;;;20.70;42.80;;;;;;5063498;28;20221;-63
2022/11/13 09:39:05;;;;;;;2.43;2.23;;;20.70;42.70;;;;;;5063130;28;20240;-63
2022/11/13 09:41:38;;;;;;;2.27;2.17;;;20.70;42.80;;;;;;5063634;28;20310;-63
2022/11/13 09:44:12;;;;;;;2.13;2.03;;;20.70;42.80;;;;;;5062835;28;20566;-63
2022/11/13 09:46:43;;;;;;;1.97;1.87;;;20.70;42.80;;;;;;5061791;28;21019;-63
2022/11/13 09:49:14;;;;;;;4.53;2.53;;;20.70;42.80;;;;;;5062691;28;21039;-63
2022/11/13 09:51:44;;;;;;;2.20;2.00;;;20.70;42.80;;;;;;5063804;28;20458;-63
2022/11/13 09:54:14;;;;;;;2.17;1.97;;;20.70;42.70;;;;;;5063950;28;20449;-63
2022/11/13 09:56:41;;;;;;;2.40;2.20;;;20.70;42.70;;;;;;5062876;28;20569;-63
2022/11/13 09:59:21;;;;;;;2.20;2.10;;;20.70;42.70;;;;;;5062480;28;20800;-63
2022/11/13 10:01:50;;;;;;;2.37;1.90;;;20.70;42.80;;;;;;5061979;28;20815;-63
2022/11/13 10:04:23;;;;;;;2.33;2.10;;;20.70;42.70;;;;;;5063612;28;20967;-63
2022/11/13 10:07:04;;;;;;;2.03;1.70;;;20.70;42.70;;;;;;5060911;28;20446;-63
2022/11/13 10:09:53;;;;;;;2.17;2.07;;;20.70;42.70;;;;;;5062682;28;21056;-63
2022/11/13 10:12:20;;;;;;;1.90;1.80;;;20.70;42.70;;;;;;5060003;28;20452;-63
2022/11/13 10:14:49;;;;;;;2.23;2.13;;;20.60;42.60;;;;;;5062856;28;20462;-63
2022/11/13 10:17:35;;;;;;;1.90;1.80;;;20.70;42.70;;;;;;5062494;28;20462;-63
2022/11/13 10:20:14;;;;;;;1.80;1.70;;;20.70;42.70;;;;;;5061706;28;20458;-63
2022/11/13 10:22:43;;;;;;;1.83;1.73;;;20.70;42.70;;;;;;5060841;28;20461;-63
2022/11/13 10:25:15;;;;;;;2.27;2.07;;;20.70;42.70;;;;;;5061509;28;20497;-63
2022/11/13 10:27:43;;;;;;;2.40;2.27;;;20.70;42.70;;;;;;5043277;28;21407;-63
2022/11/13 10:30:16;;;;;;;1.90;1.80;;;20.70;42.70;;;;;;5062146;28;20499;-63
2022/11/13 10:32:43;;;;;;;1.87;1.77;;;20.70;42.70;;;;;;5062321;28;20464;-63
2022/11/13 10:35:35;;;;;;;1.90;1.80;;;20.70;42.70;;;;;;5062793;28;20450;-63
2022/11/13 10:38:11;;;;;;;2.10;2.00;;;20.70;42.60;;;;;;5060504;28;20466;-63
2022/11/13 10:40:39;;;;;;;2.10;2.00;;;20.70;42.70;;;;;;5061830;28;20473;-63
2022/11/13 10:43:05;;;;;;;2.30;2.20;;;20.70;42.70;;;;;;5062220;28;20450;-63
2022/11/13 10:45:31;;;;;;;2.00;1.73;;;20.70;42.60;;;;;;5062862;28;20454;-63
2022/11/13 10:47:57;;;;;;;3.10;2.00;;;20.70;42.70;;;;;;5061991;28;20469;-63
2022/11/13 10:50:24;;;;;;;3.53;1.80;;;20.70;42.70;;;;;;5059959;28;20217;-63
2022/11/13 10:52:52;;;;;;;2.50;1.90;;;20.70;42.60;;;;;;5062231;28;20225;-63
2022/11/13 10:55:23;;;;;;;2.00;1.90;;;20.70;42.60;;;;;;5063168;28;20446;-63
2022/11/13 10:58:00;;;;;;;2.03;1.60;;;20.70;42.60;;;;;;5061167;28;20462;-63
2022/11/13 11:00:31;;;;;;;1.73;1.63;;;20.70;42.70;;;;;;5060295;28;20462;-63
2022/11/13 11:02:57;;;;;;;1.80;1.70;;;20.70;42.60;;;;;;5061786;28;20470;-63
2022/11/13 11:05:24;;;;;;;1.90;1.80;;;20.70;42.70;;;;;;5062414;28;20457;-63
2022/11/13 11:07:51;;;;;;;1.60;1.50;;;20.70;42.60;;;;;;5061039;28;20247;-63
2022/11/13 11:10:30;;;;;;;1.70;1.60;;;20.70;42.60;;;;;;5061664;28;20465;-63
2022/11/13 11:13:23;;;;;;;1.90;1.80;;;20.70;42.70;;;;;;5062298;28;20428;-63
2022/11/13 11:15:53;;;;;;;2.23;2.13;;;20.70;42.60;;;;;;5060708;28;20617;-63
2022/11/13 11:18:38;;;;;;;2.00;1.90;;;20.70;42.60;;;;;;5061511;28;20953;-63
2022/11/13 11:21:16;;;;;;;1.87;1.77;;;20.70;42.60;;;;;;5061092;28;20462;-63
2022/11/13 11:23:47;;;;;;;1.90;1.80;;;20.70;42.60;;;;;;5057165;28;20792;-63
2022/11/13 11:26:20;;;;;;;1.70;1.60;;;20.70;42.60;;;;;;5048450;28;20450;-63
2022/11/13 11:29:01;;;;;;;2.10;2.00;;;20.70;42.60;;;;;;5064299;28;20458;-63
2022/11/13 11:31:40;;;;;;;1.70;1.60;;;20.70;42.60;;;;;;5065444;28;20454;-63
2022/11/13 11:34:15;;;;;;;1.70;1.60;;;20.70;42.60;;;;;;5065026;28;20489;-63
2022/11/13 11:36:44;;;;;;;1.90;1.80;;;20.70;42.60;;;;;;5066851;28;20468;-63
2022/11/13 11:39:33;;;;;;;1.90;1.73;;;20.70;42.60;;;;;;5064940;28;20596;-63
2022/11/13 11:42:17;;;;;;;1.80;1.70;;;20.70;42.60;;;;;;5053729;28;20965;-63
2022/11/13 11:45:20;;;;;;;1.80;1.70;;;20.70;42.50;;;;;;5065692;28;20473;-63
2022/11/13 11:47:45;;;;;;;1.93;1.83;;;20.70;42.60;;;;;;5064712;28;20544;-64
2022/11/13 11:50:17;;;;;;;1.63;1.53;;;20.70;42.60;;;;;;5066194;28;20454;-63
2022/11/13 11:53:12;;;;;;;1.70;1.60;;;20.70;42.50;;;;;;5066812;28;20225;-63
2022/11/13 11:55:50;;;;;;;6.63;1.90;;;20.70;42.60;;;;;;5064729;28;20446;-63
2022/11/13 11:58:36;;;;;;;2.00;1.90;;;20.70;42.60;;;;;;5063461;28;20465;-63
2022/11/13 12:01:11;;;;;;;1.60;1.43;;;20.70;42.50;;;;;;5065582;28;20453;-63
2022/11/13 12:03:43;;;;;;;1.80;1.70;;;20.70;42.60;;;;;;5065030;28;20453;-63
2022/11/13 12:06:46;;;;;;;1.70;1.60;;;20.70;42.60;;;;;;5054714;28;20462;-62
2022/11/13 12:09:23;;;;;;;1.77;1.67;;;20.70;42.70;;;;;;5055403;28;20465;-63
2022/11/13 12:11:58;;;;;;;1.63;1.53;;;20.70;42.60;;;;;;5053030;28;20499;-61
2022/11/13 12:14:41;;;;;;;1.80;1.70;;;20.70;42.60;;;;;;5051907;28;20453;-62
2022/11/13 12:17:49;;;;;;;2.47;2.00;;;20.70;42.70;;;;;;5058336;28;20467;-62
2022/11/13 12:20:31;;;;;;;1.70;1.60;;;20.70;42.60;;;;;;5060827;28;20532;-63
2022/11/13 12:23:03;;;;;;;1.80;1.70;;;20.70;42.70;;;;;;5062457;28;20857;-62
2022/11/13 12:25:43;;;;;;;4.07;1.50;;;20.70;42.70;;;;;;5059693;28;20450;-62
2022/11/13 12:28:25;;;;;;;1.63;1.53;;;20.70;42.70;;;;;;5059036;28;20628;-63
2022/11/13 12:31:20;;;;;;;4.30;2.03;;;20.70;42.70;;;;;;5058512;28;20980;-62
2022/11/13 12:34:10;;;;;;;3.43;2.07;;;20.70;42.70;;;;;;5056724;28;21268;-63
2022/11/13 12:36:36;;;;;;;2.00;1.90;;;20.70;42.70;;;;;;5057551;28;20428;-63
2022/11/13 12:39:10;;;;;;;3.30;1.73;;;20.70;42.80;;;;;;5057785;28;20458;-64
2022/11/13 12:42:08;;;;;;;1.57;1.47;;;20.70;42.70;;;;;;5053882;28;20225;-64
2022/11/13 12:44:51;;;;;;;1.77;1.60;;;20.70;42.70;;;;;;5063095;28;20936;-64
2022/11/13 12:47:16;;;;;;;2.07;1.40;;;20.70;42.70;;;;;;5062063;28;20454;-64
2022/11/13 12:49:42;;;;;;;2.47;1.50;;;20.70;42.70;;;;;;5062435;28;20452;-64
2022/11/13 12:52:23;;;;;;;1.50;1.40;;;20.70;42.60;;;;;;5063796;28;20218;-64
2022/11/13 12:54:50;;;;;;;1.83;1.73;;;20.70;42.60;;;;;;5056915;28;20233;-63
2022/11/13 12:57:26;;;;;;;1.97;1.60;;;20.70;42.60;;;;;;5061759;28;20968;-64
2022/11/13 12:59:54;;;;;;;1.80;1.70;;;20.70;42.60;;;;;;5060512;28;20469;-63
2022/11/13 13:02:47;;;;;;;2.07;1.60;;;20.80;42.80;;;;;;5062599;28;20525;-65